Time;durP1;ratioP1;P1;durP2;ratioP2;P2;SDS_P1;SDS_P2;PMS_P1;PMS_P2;Temp;Humidity;BMP_temperature;BMP_pressure;BME280_temperature;BME280_humidity;BME280_pressure;Samples;Min_cycle;Max_cycle;Signal;HPM_P1;HPM_P2
2023/04/07 00:02:16;;;;;;;25.60;18.57;;;;;;;-150.27;100.00;61272.81;5075017;29;20045;-73
2023/04/07 00:04:47;;;;;;;23.33;16.80;;;;;;;-150.27;100.00;61272.81;5058714;29;20181;-76
2023/04/07 00:07:18;;;;;;;24.53;17.43;;;;;;;-150.27;100.00;61272.81;5074920;29;20029;-73
2023/04/07 00:09:50;;;;;;;27.73;18.00;;;;;;;-150.27;100.00;61272.81;5075074;29;20077;-73
2023/04/07 00:12:21;;;;;;;24.57;16.40;;;;;;;-150.27;100.00;61272.81;5072592;29;20021;-73
2023/04/07 00:14:52;;;;;;;25.10;17.53;;;;;;;-150.27;100.00;61272.81;5061198;29;20108;-76
2023/04/07 00:17:23;;;;;;;25.13;17.60;;;;;;;-150.27;100.00;61272.81;5058132;29;20029;-75
2023/04/07 00:19:55;;;;;;;27.27;17.90;;;;;;;-150.27;100.00;61272.81;5058430;29;20108;-76
2023/04/07 00:22:26;;;;;;;25.33;17.93;;;;;;;-150.27;100.00;61272.81;5073953;29;20060;-73
2023/04/07 00:24:57;;;;;;;25.10;18.87;;;;;;;-150.27;100.00;61272.81;5072268;29;20051;-74
2023/04/07 00:27:29;;;;;;;25.20;18.23;;;;;;;-150.27;100.00;61272.81;5073548;29;20564;-76
2023/04/07 00:30:01;;;;;;;30.50;18.23;;;;;;;-150.27;100.00;61272.81;5081205;29;20503;-72
2023/04/07 00:32:32;;;;;;;22.37;16.50;;;;;;;-150.27;100.00;61272.81;5074570;29;20096;-76
2023/04/07 00:35:04;;;;;;;24.17;18.30;;;;;;;-150.27;100.00;61272.81;5056979;29;20477;-72
2023/04/07 00:37:35;;;;;;;26.60;18.80;;;;;;;-150.27;100.00;61272.81;5057667;29;20458;-76
2023/04/07 00:40:07;;;;;;;24.73;18.77;;;;;;;-150.27;100.00;61272.81;5073983;29;20021;-75
2023/04/07 00:42:38;;;;;;;26.70;18.50;;;;;;;-150.27;100.00;61272.81;5061858;29;20148;-75
2023/04/07 00:45:10;;;;;;;29.93;18.47;;;;;;;-150.27;100.00;61272.81;5057278;29;20040;-76
2023/04/07 00:47:42;;;;;;;25.17;18.37;;;;;;;-150.27;100.00;61272.81;5089614;29;20175;-77
2023/04/07 00:50:13;;;;;;;25.90;18.93;;;;;;;-150.27;100.00;61272.81;5073698;29;20650;-77
2023/04/07 00:52:45;;;;;;;24.23;18.67;;;;;;;-150.27;100.00;61272.81;5074733;29;20116;-76
2023/04/07 00:55:16;;;;;;;22.70;17.60;;;;;;;-150.27;100.00;61272.81;5073815;29;20036;-74
2023/04/07 00:57:47;;;;;;;26.87;18.33;;;;;;;-150.27;100.00;61272.81;5072754;29;20033;-76
2023/04/07 01:00:19;;;;;;;25.47;18.83;;;;;;;-150.27;100.00;61272.81;5056522;29;20056;-76
2023/04/07 01:02:57;;;;;;;23.97;18.83;;;;;;;-150.27;100.00;61272.81;5074241;29;20036;-75
2023/04/07 01:05:28;;;;;;;28.20;19.77;;;;;;;-150.27;100.00;61272.81;5073109;29;20124;-72
2023/04/07 01:08:21;;;;;;;26.33;18.60;;;;;;;-150.27;100.00;61272.81;5079630;23;20053;-75
2023/04/07 01:11:09;;;;;;;25.83;18.37;;;;;;;-150.27;100.00;61272.81;5035325;29;20085;-76
2023/04/07 01:13:54;;;;;;;26.07;19.10;;;;;;;-150.27;100.00;61272.81;5036221;29;20041;-76
2023/04/07 01:16:38;;;;;;;25.80;19.13;;;;;;;-150.27;100.00;61272.81;5035102;29;20057;-76
2023/04/07 01:19:31;;;;;;;25.60;19.00;;;;;;;-150.27;100.00;61272.81;5036723;29;20087;-76
2023/04/07 01:22:09;;;;;;;24.13;19.73;;;;;;;-150.27;100.00;61272.81;5034551;29;20041;-77
2023/04/07 01:25:07;;;;;;;24.80;20.30;;;;;;;-150.27;100.00;61272.81;5034595;29;20120;-76
2023/04/07 01:27:45;;;;;;;31.53;19.93;;;;;;;-150.27;100.00;61272.81;5033687;29;20049;-77
2023/04/07 01:30:18;;;;;;;24.63;20.30;;;;;;;-150.27;100.00;61272.81;5035599;29;20470;-77
2023/04/07 01:32:51;;;;;;;29.13;20.53;;;;;;;-150.27;100.00;61272.81;5034624;29;20032;-75
2023/04/07 01:35:27;;;;;;;22.90;18.67;;;;;;;-150.27;100.00;61272.81;5034830;29;20040;-76
2023/04/07 01:37:59;;;;;;;29.40;19.33;;;;;;;-150.27;100.00;61272.81;5021002;29;20042;-76
2023/04/07 01:40:34;;;;;;;24.73;19.37;;;;;;;-150.27;100.00;61272.81;5033364;29;20118;-76
2023/04/07 01:43:08;;;;;;;23.15;17.75;;;;;;;-150.27;100.00;61272.81;5032745;29;20478;-76
2023/04/07 01:46:28;;;;;;;;;;;;;;;;;;;;;
2023/04/07 02:29:28;;;;;;;14.57;8.23;;;;;;;-150.27;100.00;61272.81;4956774;29;20067;-76
2023/04/07 02:31:59;;;;;;;12.17;7.80;;;;;;;-150.27;100.00;61272.81;5000853;29;20755;-76
2023/04/07 02:34:31;;;;;;;13.50;7.83;;;;;;;-150.27;100.00;61272.81;5033906;29;20034;-76
2023/04/07 02:37:02;;;;;;;15.73;7.97;;;;;;;-150.27;100.00;61272.81;5034155;29;20061;-75
2023/04/07 02:39:34;;;;;;;14.80;7.83;;;;;;;-150.27;100.00;61272.81;5033671;29;20072;-76
2023/04/07 02:42:05;;;;;;;12.97;8.73;;;;;;;-150.27;100.00;61272.81;5032627;29;20814;-76
2023/04/07 02:44:36;;;;;;;12.50;9.23;;;;;;;-150.27;100.00;61272.81;5034417;29;20029;-76
2023/04/07 02:47:08;;;;;;;17.03;8.87;;;;;;;-150.27;100.00;61272.81;5033106;29;20033;-76
2023/04/07 02:49:40;;;;;;;18.83;9.77;;;;;;;-150.27;100.00;61272.81;5033878;29;20395;-77
2023/04/07 02:52:11;;;;;;;17.00;10.30;;;;;;;-150.27;100.00;61272.81;5033430;29;20071;-77
2023/04/07 02:54:43;;;;;;;16.27;11.23;;;;;;;-150.27;100.00;61272.81;5033978;29;20170;-76
2023/04/07 02:57:14;;;;;;;17.57;11.93;;;;;;;-150.27;100.00;61272.81;5032768;29;20041;-76
2023/04/07 02:59:45;;;;;;;13.97;11.03;;;;;;;-150.27;100.00;61272.81;5033476;29;20038;-76
2023/04/07 03:02:17;;;;;;;22.00;11.50;;;;;;;-150.27;100.00;61272.81;5033385;29;20026;-76
2023/04/07 03:04:50;;;;;;;17.90;11.77;;;;;;;-150.27;100.00;61272.81;5033870;29;20030;-76
2023/04/07 03:07:22;;;;;;;20.90;11.50;;;;;;;-150.27;100.00;61272.81;5033817;29;20094;-76
2023/04/07 03:09:53;;;;;;;18.30;12.13;;;;;;;-150.27;100.00;61272.81;5036727;29;20298;-76
2023/04/07 03:12:24;;;;;;;19.77;11.57;;;;;;;-150.27;100.00;61272.81;5051646;29;20097;-76
2023/04/07 03:14:56;;;;;;;17.43;12.30;;;;;;;-150.27;100.00;61272.81;5052819;29;20053;-77
2023/04/07 03:17:27;;;;;;;19.87;13.43;;;;;;;-150.27;100.00;61272.81;5053648;29;20038;-77
2023/04/07 03:19:59;;;;;;;13.33;11.43;;;;;;;-150.27;100.00;61272.81;5052571;29;20030;-77
2023/04/07 03:22:30;;;;;;;14.90;11.03;;;;;;;-150.27;100.00;61272.81;5053183;29;20043;-77
2023/04/07 03:25:02;;;;;;;16.00;12.07;;;;;;;-150.27;100.00;61272.81;5052280;29;20437;-77
2023/04/07 03:27:33;;;;;;;18.37;11.53;;;;;;;-150.27;100.00;61272.81;5051809;29;20049;-77
2023/04/07 03:30:05;;;;;;;20.20;12.90;;;;;;;-150.27;100.00;61272.81;5052697;29;20063;-77
2023/04/07 03:32:37;;;;;;;18.00;12.93;;;;;;;-150.27;100.00;61272.81;5052467;29;20033;-77
2023/04/07 03:35:09;;;;;;;16.60;11.50;;;;;;;-150.27;100.00;61272.81;5052597;29;20033;-76
2023/04/07 03:37:43;;;;;;;20.37;12.37;;;;;;;-150.27;100.00;61272.81;5052256;29;20124;-76
2023/04/07 03:40:14;;;;;;;19.63;12.98;;;;;;;-150.27;100.00;61272.81;5052889;29;20029;-77
2023/04/07 03:42:45;;;;;;;18.27;11.70;;;;;;;-150.27;100.00;61272.81;5052226;29;20078;-76
2023/04/07 03:45:19;;;;;;;17.70;11.00;;;;;;;-150.27;100.00;61272.81;5035382;29;20037;-76
2023/04/07 03:47:50;;;;;;;16.40;11.57;;;;;;;-150.27;100.00;61272.81;5052512;29;20490;-77
2023/04/07 03:50:21;;;;;;;23.50;11.47;;;;;;;-150.27;100.00;61272.81;5051997;29;20297;-77
2023/04/07 03:52:53;;;;;;;17.57;11.73;;;;;;;-150.27;100.00;61272.81;5052506;29;20031;-77
2023/04/07 03:55:24;;;;;;;18.53;11.30;;;;;;;-150.27;100.00;61272.81;5035450;29;20522;-76
2023/04/07 03:57:56;;;;;;;22.20;12.63;;;;;;;-150.27;100.00;61272.81;5051635;29;20032;-77
2023/04/07 04:00:27;;;;;;;22.87;13.07;;;;;;;-150.27;100.00;61272.81;5052338;29;20045;-77
2023/04/07 04:02:59;;;;;;;20.90;12.83;;;;;;;-150.27;100.00;61272.81;5051830;29;20490;-76
2023/04/07 04:05:31;;;;;;;17.23;12.97;;;;;;;-150.27;100.00;61272.81;5052273;29;20657;-75
2023/04/07 04:08:02;;;;;;;18.93;12.87;;;;;;;-150.27;100.00;61272.81;5052335;29;20029;-75
2023/04/07 04:10:34;;;;;;;26.83;13.63;;;;;;;-150.27;100.00;61272.81;5051124;29;20760;-76
2023/04/07 04:13:06;;;;;;;20.47;13.73;;;;;;;-150.27;100.00;61272.81;5052341;29;20522;-76
2023/04/07 04:15:38;;;;;;;21.47;13.37;;;;;;;-150.27;100.00;61272.81;5055173;29;20022;-77
2023/04/07 04:18:09;;;;;;;17.90;13.27;;;;;;;-150.27;100.00;61272.81;5055464;29;20036;-76
2023/04/07 04:20:42;;;;;;;22.37;13.50;;;;;;;-150.27;100.00;61272.81;5054650;29;20446;-75
2023/04/07 04:23:14;;;;;;;22.33;13.30;;;;;;;-150.27;100.00;61272.81;5055091;29;20036;-75
2023/04/07 04:25:45;;;;;;;23.63;14.17;;;;;;;-150.27;100.00;61272.81;5044629;29;20029;-75
2023/04/07 04:28:16;;;;;;;23.83;14.00;;;;;;;-150.27;100.00;61272.81;5054099;29;20086;-76
2023/04/07 04:30:48;;;;;;;20.60;13.90;;;;;;;-150.27;100.00;61272.81;5050356;29;20036;-76
2023/04/07 04:33:20;;;;;;;19.90;14.23;;;;;;;-150.27;100.00;61272.81;5050007;29;20033;-76
2023/04/07 04:35:51;;;;;;;21.67;13.37;;;;;;;-150.27;100.00;61272.81;5037719;29;20028;-76
2023/04/07 04:38:22;;;;;;;19.20;14.77;;;;;;;-150.27;100.00;61272.81;5038895;29;20094;-77
2023/04/07 04:40:54;;;;;;;23.27;13.13;;;;;;;-150.27;100.00;61272.81;5054365;29;20033;-77
2023/04/07 04:43:25;;;;;;;18.33;12.77;;;;;;;-150.27;100.00;61272.81;5054457;29;20029;-77
2023/04/07 04:45:58;;;;;;;20.07;13.00;;;;;;;-150.27;100.00;61272.81;5054811;29;20141;-77
2023/04/07 04:48:29;;;;;;;19.07;13.67;;;;;;;-150.27;100.00;61272.81;5054710;29;20044;-76
2023/04/07 04:51:00;;;;;;;23.30;13.80;;;;;;;-150.27;100.00;61272.81;5054988;29;20478;-77
2023/04/07 04:53:32;;;;;;;23.00;13.53;;;;;;;-150.27;100.00;61272.81;5054904;29;20036;-76
2023/04/07 04:56:03;;;;;;;24.47;14.10;;;;;;;-150.27;100.00;61272.81;5053618;29;20524;-75
2023/04/07 04:58:35;;;;;;;20.60;12.80;;;;;;;-150.27;100.00;61272.81;5054846;29;20032;-76
2023/04/07 05:01:07;;;;;;;23.93;14.13;;;;;;;-150.27;100.00;61272.81;5053987;29;20040;-75
2023/04/07 05:03:39;;;;;;;24.73;14.03;;;;;;;-150.27;100.00;61272.81;5054664;29;20041;-76
2023/04/07 05:06:10;;;;;;;27.80;12.97;;;;;;;-150.27;100.00;61272.81;5037746;29;20146;-76
2023/04/07 05:08:41;;;;;;;25.00;13.33;;;;;;;-150.27;100.00;61272.81;5037620;29;20037;-76
2023/04/07 05:11:13;;;;;;;21.50;13.70;;;;;;;-150.27;100.00;61272.81;5053355;29;20399;-76
2023/04/07 05:13:44;;;;;;;22.40;12.77;;;;;;;-150.27;100.00;61272.81;5054126;29;20041;-77
2023/04/07 05:16:15;;;;;;;23.17;14.53;;;;;;;-150.27;100.00;61272.81;5037921;29;20021;-76
2023/04/07 05:18:47;;;;;;;26.77;13.90;;;;;;;-150.27;100.00;61272.81;5056182;29;20030;-75
2023/04/07 05:21:21;;;;;;;21.57;13.17;;;;;;;-150.27;100.00;61272.81;5054264;29;20076;-77
2023/04/07 05:23:53;;;;;;;24.98;14.32;;;;;;;-150.27;100.00;61272.81;5055098;29;20061;-76
2023/04/07 05:26:24;;;;;;;23.67;13.93;;;;;;;-150.27;100.00;61272.81;5049776;29;20053;-76
2023/04/07 05:28:56;;;;;;;25.10;14.37;;;;;;;-150.27;100.00;61272.81;5053185;29;20056;-74
2023/04/07 05:31:27;;;;;;;22.90;13.47;;;;;;;-150.27;100.00;61272.81;5034809;29;20501;-75
2023/04/07 05:33:58;;;;;;;27.63;13.63;;;;;;;-150.27;100.00;61272.81;5036041;29;20029;-75
2023/04/07 05:36:30;;;;;;;23.07;13.20;;;;;;;-150.27;100.00;61272.81;5048236;29;20029;-75
2023/04/07 05:39:02;;;;;;;29.53;15.83;;;;;;;-150.27;100.00;61272.81;5047629;29;20405;-74
2023/04/07 05:41:33;;;;;;;22.03;14.60;;;;;;;-150.27;100.00;61272.81;5047019;29;20034;-74
2023/04/07 05:44:05;;;;;;;24.97;13.90;;;;;;;-150.27;100.00;61272.81;5040786;29;20069;-74
2023/04/07 05:46:36;;;;;;;27.83;15.13;;;;;;;-150.27;100.00;61272.81;5044080;29;20112;-74
2023/04/07 05:49:08;;;;;;;22.20;13.97;;;;;;;-150.27;100.00;61272.81;5049282;29;20240;-76
2023/04/07 05:51:39;;;;;;;24.63;15.10;;;;;;;-150.27;100.00;61272.81;5053508;29;20041;-76
2023/04/07 05:54:26;;;;;;;24.63;15.03;;;;;;;-150.27;100.00;61272.81;5037954;29;20158;-75
2023/04/07 05:56:57;;;;;;;28.03;15.23;;;;;;;-150.27;100.00;61272.81;5045019;29;20057;-75
2023/04/07 05:59:29;;;;;;;25.13;15.53;;;;;;;-150.27;100.00;61272.81;5045945;29;20034;-74
2023/04/07 06:02:04;;;;;;;23.93;15.37;;;;;;;-150.27;100.00;61272.81;5045266;29;20622;-75
2023/04/07 06:04:45;;;;;;;26.03;15.23;;;;;;;-150.27;100.00;61272.81;5046422;29;20038;-75
2023/04/07 06:07:16;;;;;;;27.73;16.67;;;;;;;-150.27;100.00;61272.81;5051345;29;20109;-75
2023/04/07 06:09:47;;;;;;;27.77;16.37;;;;;;;-150.27;100.00;61272.81;5031140;29;20501;-74
2023/04/07 06:12:19;;;;;;;23.20;14.63;;;;;;;-150.27;100.00;61272.81;5034819;29;20034;-75
2023/04/07 06:14:52;;;;;;;24.67;15.23;;;;;;;-150.27;100.00;61272.81;5022660;29;20021;-75
2023/04/07 06:17:24;;;;;;;31.60;14.70;;;;;;;-150.27;100.00;61272.81;5036620;29;20035;-76
2023/04/07 06:19:55;;;;;;;20.93;15.07;;;;;;;-150.27;100.00;61272.81;5053159;29;20282;-75
2023/04/07 06:22:27;;;;;;;25.13;16.50;;;;;;;-150.27;100.00;61272.81;5047177;29;20029;-75
2023/04/07 06:24:58;;;;;;;23.93;16.10;;;;;;;-150.27;100.00;61272.81;5052667;29;20022;-75
2023/04/07 06:27:29;;;;;;;23.93;15.57;;;;;;;-150.27;100.00;61272.81;5035473;29;20163;-75
2023/04/07 06:30:23;;;;;;;25.07;15.83;;;;;;;-150.27;100.00;61272.81;5035560;29;20064;-75
2023/04/07 06:32:55;;;;;;;26.97;17.40;;;;;;;-150.27;100.00;61272.81;5036948;29;20565;-75
2023/04/07 06:35:26;;;;;;;21.43;16.03;;;;;;;-150.27;100.00;61272.81;5052090;29;20034;-75
2023/04/07 06:37:58;;;;;;;25.23;15.83;;;;;;;-150.27;100.00;61272.81;5036149;29;20419;-76
2023/04/07 06:40:29;;;;;;;25.90;15.80;;;;;;;-150.27;100.00;61272.81;5052388;29;20030;-75
2023/04/07 06:43:01;;;;;;;22.23;16.13;;;;;;;-150.27;100.00;61272.81;5053464;29;20037;-75
2023/04/07 06:45:32;;;;;;;23.03;16.93;;;;;;;-150.27;100.00;61272.81;5051994;29;20040;-74
2023/04/07 06:48:04;;;;;;;19.93;15.67;;;;;;;-150.27;100.00;61272.81;5053466;29;20067;-75
2023/04/07 06:50:37;;;;;;;19.07;15.23;;;;;;;-150.27;100.00;61272.81;5036539;29;20132;-75
2023/04/07 06:53:08;;;;;;;22.70;15.87;;;;;;;-150.27;100.00;61272.81;5036593;29;20036;-75
2023/04/07 06:55:40;;;;;;;21.20;15.73;;;;;;;-150.27;100.00;61272.81;5052574;29;20410;-75
2023/04/07 06:58:11;;;;;;;23.23;16.33;;;;;;;-150.27;100.00;61272.81;5052946;29;20021;-75
2023/04/07 07:00:43;;;;;;;21.13;14.37;;;;;;;-150.27;100.00;61272.81;5053436;29;20165;-75
2023/04/07 07:03:15;;;;;;;24.13;14.93;;;;;;;-150.27;100.00;61272.81;5052767;29;20642;-75
2023/04/07 07:05:46;;;;;;;22.23;14.23;;;;;;;-150.27;100.00;61272.81;5036661;29;20036;-75
2023/04/07 07:08:18;;;;;;;23.23;14.03;;;;;;;-150.27;100.00;61272.81;5035585;29;20063;-75
2023/04/07 07:10:49;;;;;;;22.37;14.30;;;;;;;-150.27;100.00;61272.81;5052570;29;20132;-75
2023/04/07 07:13:23;;;;;;;18.97;12.53;;;;;;;-150.27;100.00;61272.81;5035899;29;20112;-75
2023/04/07 07:15:54;;;;;;;15.77;11.00;;;;;;;-150.27;100.00;61272.81;5053146;29;20036;-75
2023/04/07 07:18:26;;;;;;;17.53;11.93;;;;;;;-150.27;100.00;61272.81;5036146;29;20029;-76
2023/04/07 07:21:01;;;;;;;17.23;11.93;;;;;;;-150.27;100.00;61272.81;5037381;29;20062;-75
2023/04/07 07:23:33;;;;;;;19.73;12.23;;;;;;;-150.27;100.00;61272.81;5052061;29;20037;-74
2023/04/07 07:26:04;;;;;;;14.67;9.97;;;;;;;-150.27;100.00;61272.81;5035458;29;20041;-74
2023/04/07 07:28:36;;;;;;;18.27;10.97;;;;;;;-150.27;100.00;61272.81;5035990;29;20555;-75
2023/04/07 07:31:12;;;;;;;16.70;11.00;;;;;;;-150.27;100.00;61272.81;5052402;29;20037;-75
2023/04/07 07:33:44;;;;;;;16.13;10.83;;;;;;;-150.27;100.00;61272.81;5052442;29;20037;-74
2023/04/07 07:36:16;;;;;;;20.37;9.90;;;;;;;-150.27;100.00;61272.81;5035938;29;20029;-74
2023/04/07 07:38:51;;;;;;;15.23;9.20;;;;;;;-150.27;100.00;61272.81;5053070;29;20532;-74
2023/04/07 07:41:22;;;;;;;14.37;9.13;;;;;;;-150.27;100.00;61272.81;5051266;29;20037;-75
2023/04/07 07:43:54;;;;;;;15.63;8.03;;;;;;;-150.27;100.00;61272.81;5036913;29;20037;-74
2023/04/07 07:46:26;;;;;;;12.47;8.00;;;;;;;-150.27;100.00;61272.81;5037953;29;20060;-74
2023/04/07 07:48:57;;;;;;;16.70;7.57;;;;;;;-150.27;100.00;61272.81;5055840;29;20035;-74
2023/04/07 07:51:28;;;;;;;13.47;6.80;;;;;;;-150.27;100.00;61272.81;5057566;29;20041;-74
2023/04/07 07:54:00;;;;;;;11.30;6.47;;;;;;;-150.27;100.00;61272.81;5056574;29;20108;-74
2023/04/07 07:56:31;;;;;;;11.60;6.87;;;;;;;-150.27;100.00;61272.81;5056775;29;20464;-74
2023/04/07 07:59:05;;;;;;;16.37;6.90;;;;;;;-150.27;100.00;61272.81;5056056;29;20422;-74
2023/04/07 08:01:36;;;;;;;14.52;6.80;;;;;;;-150.27;100.00;61272.81;5039757;29;20033;-74
2023/04/07 08:04:08;;;;;;;10.97;6.37;;;;;;;-150.27;100.00;61272.81;5056172;29;20029;-74
2023/04/07 08:06:40;;;;;;;10.87;4.73;;;;;;;-150.27;100.00;61272.81;5055892;29;20028;-75
2023/04/07 08:09:12;;;;;;;12.77;4.80;;;;;;;-150.27;100.00;61272.81;5056871;29;20112;-74
2023/04/07 08:11:43;;;;;;;9.03;5.07;;;;;;;-150.27;100.00;61272.81;5056703;29;20051;-74
2023/04/07 08:14:15;;;;;;;11.60;4.60;;;;;;;-150.27;100.00;61272.81;5055347;29;20049;-73
2023/04/07 08:16:46;;;;;;;12.03;4.93;;;;;;;-150.27;100.00;61272.81;5056489;29;20097;-74
2023/04/07 08:19:18;;;;;;;13.17;4.10;;;;;;;-150.27;100.00;61272.81;5040588;29;20029;-74
2023/04/07 08:21:49;;;;;;;6.67;4.10;;;;;;;-150.27;100.00;61272.81;5040236;29;20067;-73
2023/04/07 08:24:21;;;;;;;6.50;3.60;;;;;;;-150.27;100.00;61272.81;5038555;29;20042;-75
2023/04/07 08:26:52;;;;;;;5.90;3.20;;;;;;;-150.27;100.00;61272.81;5038654;29;20365;-75
2023/04/07 08:29:23;;;;;;;6.73;3.27;;;;;;;-150.27;100.00;61272.81;5055086;29;20466;-75
2023/04/07 08:31:55;;;;;;;8.70;3.40;;;;;;;-150.27;100.00;61272.81;5055613;29;20034;-74
2023/04/07 08:34:26;;;;;;;9.30;3.73;;;;;;;-150.27;100.00;61272.81;5054850;29;20041;-74
2023/04/07 08:36:58;;;;;;;12.40;4.33;;;;;;;-150.27;100.00;61272.81;5055747;29;20174;-75
2023/04/07 08:39:29;;;;;;;9.73;4.87;;;;;;;-150.27;100.00;61272.81;5055457;29;20044;-75
2023/04/07 08:42:01;;;;;;;8.83;3.43;;;;;;;-150.27;100.00;61272.81;5054121;29;20040;-75
2023/04/07 08:44:33;;;;;;;9.67;3.97;;;;;;;-150.27;100.00;61272.81;5055216;29;20033;-75
2023/04/07 08:47:06;;;;;;;10.20;5.10;;;;;;;-150.27;100.00;61272.81;5055162;29;20040;-75
2023/04/07 08:49:42;;;;;;;10.93;3.40;;;;;;;-150.27;100.00;61272.81;5038732;29;20116;-75
2023/04/07 08:52:15;;;;;;;7.20;2.60;;;;;;;-150.27;100.00;61272.81;5054681;29;20037;-75
2023/04/07 08:54:47;;;;;;;11.67;4.13;;;;;;;-150.27;100.00;61272.81;5054894;29;20045;-74
2023/04/07 08:57:19;;;;;;;10.63;2.67;;;;;;;-150.27;100.00;61272.81;5054541;29;20546;-75
2023/04/07 08:59:51;;;;;;;6.33;2.20;;;;;;;-150.27;100.00;61272.81;5038217;29;20493;-75
2023/04/07 09:02:23;;;;;;;4.57;2.20;;;;;;;-150.27;100.00;61272.81;5054686;29;20032;-75
2023/04/07 09:04:54;;;;;;;4.53;2.23;;;;;;;-150.27;100.00;61272.81;5054843;29;20057;-75
2023/04/07 09:07:25;;;;;;;8.60;2.60;;;;;;;-150.27;100.00;61272.81;5054197;29;20053;-75
2023/04/07 09:10:03;;;;;;;9.70;2.70;;;;;;;-150.27;100.00;61272.81;5053659;29;20469;-76
2023/04/07 09:12:35;;;;;;;8.10;2.07;;;;;;;-150.27;100.00;61272.81;5054348;29;20072;-75
2023/04/07 09:15:07;;;;;;;6.40;2.33;;;;;;;-150.27;100.00;61272.81;5054568;29;20026;-75
2023/04/07 09:17:39;;;;;;;8.17;3.20;;;;;;;-150.27;100.00;61272.81;5037591;29;20049;-75
2023/04/07 09:20:10;;;;;;;6.00;2.20;;;;;;;-150.27;100.00;61272.81;5054670;29;20033;-75
2023/04/07 09:22:44;;;;;;;10.30;2.10;;;;;;;-150.27;100.00;61272.81;5053971;29;20029;-75
2023/04/07 09:25:22;;;;;;;6.40;2.08;;;;;;;-150.27;100.00;61272.81;5053798;29;20033;-75
2023/04/07 09:27:54;;;;;;;11.00;2.40;;;;;;;-150.27;100.00;61272.81;5053903;29;20030;-74
2023/04/07 09:30:26;;;;;;;11.07;2.77;;;;;;;-150.27;100.00;61272.81;5054208;29;20041;-75
2023/04/07 09:32:58;;;;;;;8.33;2.50;;;;;;;-150.27;100.00;61272.81;5053576;29;20077;-75
2023/04/07 09:35:30;;;;;;;11.20;2.47;;;;;;;-150.27;100.00;61272.81;5054347;29;20033;-75
2023/04/07 09:38:31;;;;;;;6.50;2.50;;;;;;;-150.27;100.00;61272.81;5037880;29;20036;-75
2023/04/07 09:41:11;;;;;;;7.67;2.67;;;;;;;-150.27;100.00;61272.81;5036613;29;20068;-75
2023/04/07 09:44:13;;;;;;;6.83;2.07;;;;;;;-150.27;100.00;61272.81;5038136;29;20033;-74
2023/04/07 09:47:07;;;;;;;8.87;2.13;;;;;;;-150.27;100.00;61272.81;5037820;29;20098;-75
2023/04/07 09:49:52;;;;;;;10.53;2.47;;;;;;;-150.27;100.00;61272.81;5037279;29;20047;-75
2023/04/07 09:52:56;;;;;;;6.83;2.30;;;;;;;-150.27;100.00;61272.81;5037749;29;20025;-75
2023/04/07 09:55:31;;;;;;;9.57;2.37;;;;;;;-150.27;100.00;61272.81;5036634;29;20065;-75
2023/04/07 09:58:03;;;;;;;6.77;2.10;;;;;;;-150.27;100.00;61272.81;5037531;29;20417;-75
2023/04/07 10:00:35;;;;;;;5.47;2.17;;;;;;;-150.27;100.00;61272.81;5054946;29;20033;-75
2023/04/07 10:03:09;;;;;;;11.97;2.83;;;;;;;-150.27;100.00;61272.81;5053574;29;20108;-74
2023/04/07 10:05:42;;;;;;;8.13;2.20;;;;;;;-150.27;100.00;61272.81;5052973;29;20120;-75
2023/04/07 10:08:14;;;;;;;9.03;3.07;;;;;;;-150.27;100.00;61272.81;5042194;29;20082;-75
2023/04/07 10:10:57;;;;;;;12.07;2.90;;;;;;;-150.27;100.00;61272.81;5033653;29;20530;-75
2023/04/07 10:13:31;;;;;;;11.35;2.70;;;;;;;-150.27;100.00;61272.81;5020671;29;20033;-75
2023/04/07 10:16:50;;;;;;;12.30;3.90;;;;;;;-150.27;100.00;61272.81;5022610;29;20043;-73
2023/04/07 10:19:23;;;;;;;11.20;3.10;;;;;;;-150.27;100.00;61272.81;4972147;29;20047;-74
2023/04/07 10:21:55;;;;;;;16.60;4.30;;;;;;;-150.27;100.00;61272.81;4973207;29;20042;-74
2023/04/07 10:24:43;;;;;;;12.40;3.80;;;;;;;-150.27;100.00;61272.81;5030062;29;20113;-74
2023/04/07 10:27:20;;;;;;;16.13;3.67;;;;;;;-150.27;100.00;61272.81;5040490;29;20119;-74
2023/04/07 10:29:56;;;;;;;14.73;2.57;;;;;;;-150.27;100.00;61272.81;5040269;29;20426;-74
2023/04/07 10:32:28;;;;;;;8.60;2.57;;;;;;;-150.27;100.00;61272.81;5031994;29;20053;-74
2023/04/07 10:35:00;;;;;;;12.03;2.83;;;;;;;-150.27;100.00;61272.81;5050248;29;20033;-73
2023/04/07 10:37:33;;;;;;;8.73;3.13;;;;;;;-150.27;100.00;61272.81;5035357;29;20068;-73
2023/04/07 10:40:20;;;;;;;8.67;1.90;;;;;;;-150.27;100.00;61272.81;5048848;29;20416;-73
2023/04/07 10:42:51;;;;;;;11.47;2.90;;;;;;;-150.27;100.00;61272.81;5050213;29;20026;-73
2023/04/07 10:45:41;;;;;;;8.97;2.23;;;;;;;-150.27;100.00;61272.81;5050146;29;20036;-73
2023/04/07 10:48:17;;;;;;;6.57;2.33;;;;;;;-150.27;100.00;61272.81;5048994;29;20033;-73
2023/04/07 10:51:14;;;;;;;7.30;2.10;;;;;;;-150.27;100.00;61272.81;5050514;29;20041;-73
2023/04/07 10:54:16;;;;;;;9.37;2.23;;;;;;;-150.27;100.00;61272.81;5042526;29;20046;-73
2023/04/07 10:57:02;;;;;;;8.90;2.70;;;;;;;-150.27;100.00;61272.81;5050576;29;20151;-75
2023/04/07 10:59:34;;;;;;;13.03;3.10;;;;;;;-150.27;100.00;61272.81;5033103;29;20041;-74
2023/04/07 11:02:15;;;;;;;8.70;2.33;;;;;;;-150.27;100.00;61272.81;5050737;29;20217;-74
2023/04/07 11:04:46;;;;;;;10.50;2.67;;;;;;;-150.27;100.00;61272.81;5050442;29;20049;-73
2023/04/07 11:07:19;;;;;;;12.70;2.87;;;;;;;-150.27;100.00;61272.81;5048842;29;20732;-74
2023/04/07 11:10:08;;;;;;;9.83;2.93;;;;;;;-150.27;100.00;61272.81;5037479;29;20029;-74
2023/04/07 11:12:39;;;;;;;13.77;2.40;;;;;;;-150.27;100.00;61272.81;5048714;29;20029;-73
2023/04/07 11:15:27;;;;;;;10.13;2.60;;;;;;;-150.27;100.00;61272.81;5048785;29;20030;-73
2023/04/07 11:18:15;;;;;;;11.53;2.87;;;;;;;-150.27;100.00;61272.81;5050200;29;20038;-73
2023/04/07 11:20:51;;;;;;;6.27;1.87;;;;;;;-150.27;100.00;61272.81;5051414;29;20384;-72
2023/04/07 11:23:24;;;;;;;6.47;2.37;;;;;;;-150.27;100.00;61272.81;5035275;29;20030;-73
2023/04/07 11:26:00;;;;;;;9.83;2.30;;;;;;;-150.27;100.00;61272.81;5036846;29;20261;-73
2023/04/07 11:28:54;;;;;;;8.00;1.73;;;;;;;-150.27;100.00;61272.81;5053467;29;20037;-73
2023/04/07 11:32:24;;;;;;;7.83;2.23;;;;;;;-150.27;100.00;61272.81;5055987;29;20048;-72
2023/04/07 11:35:31;;;;;;;8.33;2.57;;;;;;;-150.27;100.00;61272.81;4998488;29;20546;-74
2023/04/07 11:49:42;;;;;;;9.13;2.20;;;;;;;-150.27;100.00;61272.81;4972601;29;20039;-73
2023/04/07 11:52:17;;;;;;;6.90;2.80;;;;;;;-150.27;100.00;61272.81;4982796;29;20050;-72
2023/04/07 11:58:30;;;;;;;8.40;2.20;;;;;;;-150.27;100.00;61272.81;4991931;29;20054;-73
2023/04/07 12:01:07;;;;;;;11.87;3.20;;;;;;;-150.27;100.00;61272.81;4993757;29;20498;-72
2023/04/07 12:04:32;;;;;;;7.13;2.40;;;;;;;-150.27;100.00;61272.81;5024011;29;20083;-73
2023/04/07 12:07:34;;;;;;;5.77;2.10;;;;;;;-150.27;100.00;61272.81;5017963;29;20495;-73
2023/04/07 12:10:27;;;;;;;10.80;3.47;;;;;;;-150.27;100.00;61272.81;5026956;29;20397;-73
2023/04/07 12:12:58;;;;;;;12.70;2.97;;;;;;;-150.27;100.00;61272.81;5034038;29;20611;-73
2023/04/07 12:15:44;;;;;;;7.63;2.03;;;;;;;-150.27;100.00;61272.81;5034209;29;20128;-73
2023/04/07 12:18:17;;;;;;;8.33;2.10;;;;;;;-150.27;100.00;61272.81;5033899;29;20085;-73
2023/04/07 12:21:02;;;;;;;11.70;2.83;;;;;;;-150.27;100.00;61272.81;5033942;29;20045;-73
2023/04/07 12:23:33;;;;;;;10.93;2.22;;;;;;;-150.27;100.00;61272.81;5017352;29;20436;-73
2023/04/07 12:26:04;;;;;;;9.60;2.03;;;;;;;-150.27;100.00;61272.81;5033033;29;20034;-73
2023/04/07 12:28:36;;;;;;;8.10;2.07;;;;;;;-150.27;100.00;61272.81;5053666;29;20121;-74
2023/04/07 12:31:11;;;;;;;13.50;2.67;;;;;;;-150.27;100.00;61272.81;5051914;29;20029;-73